Time;durP1;ratioP1;P1;durP2;ratioP2;P2;SDS_P1;SDS_P2;PMS_P1;PMS_P2;Temp;Humidity;BMP_temperature;BMP_pressure;BME280_temperature;BME280_humidity;BME280_pressure;Samples;Min_cycle;Max_cycle;Signal;HPM_P1;HPM_P2
2023/06/23 00:01:22;;;;;;;10.73;2.72;;;;;;;20.82;100.00;100273.94;4978521;28;20251;-78
2023/06/23 00:03:54;;;;;;;21.65;5.28;;;;;;;20.75;100.00;100263.38;4976524;28;20231;-77
2023/06/23 00:06:21;;;;;;;12.20;2.75;;;;;;;20.84;100.00;100272.09;4980273;28;20251;-78
2023/06/23 00:08:48;;;;;;;16.75;3.83;;;;;;;20.63;100.00;100261.13;4975908;28;20702;-76
2023/06/23 00:11:19;;;;;;;14.30;3.33;;;;;;;20.76;100.00;100273.19;4982133;28;20236;-76
2023/06/23 00:13:46;;;;;;;19.50;4.57;;;;;;;20.75;100.00;100268.75;4976316;28;20307;-77
2023/06/23 00:16:12;;;;;;;9.10;2.20;;;;;;;20.79;100.00;100269.53;4978109;28;20342;-77
2023/06/23 00:18:39;;;;;;;11.45;2.58;;;;;;;20.75;100.00;100268.75;4979680;28;20319;-77
2023/06/23 00:21:08;;;;;;;19.77;4.60;;;;;;;20.67;100.00;100238.59;4970160;28;20224;-77
2023/06/23 00:23:35;;;;;;;14.93;3.38;;;;;;;20.75;100.00;100243.69;4977767;28;20224;-77
2023/06/23 00:26:07;;;;;;;23.85;4.53;;;;;;;20.82;100.00;100234.50;4971799;28;20296;-78
2023/06/23 00:28:34;;;;;;;11.60;2.72;;;;;;;20.77;100.00;100245.41;4978075;28;20673;-78
2023/06/23 00:31:01;;;;;;;13.82;3.17;;;;;;;20.76;100.00;100254.41;4974460;28;20247;-77
2023/06/23 00:33:29;;;;;;;17.20;4.00;;;;;;;20.80;100.00;100257.84;4977170;28;20232;-77
2023/06/23 00:35:55;;;;;;;42.38;7.70;;;;;;;20.69;100.00;100273.47;4971450;28;20245;-77
2023/06/23 00:38:25;;;;;;;10.55;2.70;;;;;;;20.62;100.00;100270.13;4976877;28;20251;-77
2023/06/23 00:40:52;;;;;;;39.08;8.07;;;;;;;20.60;100.00;100281.84;4974882;28;20351;-77
2023/06/23 00:43:18;;;;;;;6.30;1.70;;;;;;;20.60;100.00;100295.28;4980277;28;20601;-77
2023/06/23 00:45:45;;;;;;;21.30;4.28;;;;;;;20.39;100.00;100304.94;4973024;28;20233;-77
2023/06/23 00:48:13;;;;;;;9.13;2.63;;;;;;;20.31;100.00;100334.72;4950658;28;20235;-77
2023/06/23 00:50:41;;;;;;;9.93;2.53;;;;;;;20.26;100.00;100335.78;4976184;28;20228;-78
2023/06/23 00:53:08;;;;;;;9.55;2.40;;;;;;;20.32;100.00;100359.75;4989371;28;20235;-78
2023/06/23 00:55:37;;;;;;;12.85;3.03;;;;;;;20.25;100.00;100385.94;4978429;28;20795;-78
2023/06/23 00:58:08;;;;;;;20.30;4.50;;;;;;;20.19;100.00;100396.88;4974601;28;20240;-77
2023/06/23 01:00:35;;;;;;;14.10;3.45;;;;;;;20.19;100.00;100417.47;4974413;28;20232;-76
2023/06/23 01:03:03;;;;;;;14.20;3.10;;;;;;;20.11;100.00;100421.25;4975061;28;20233;-77
2023/06/23 01:05:35;;;;;;;14.32;3.30;;;;;;;20.03;100.00;100441.22;4976988;28;20264;-77
2023/06/23 01:08:05;;;;;;;15.35;3.80;;;;;;;19.97;100.00;100447.66;4973335;28;20582;-77
2023/06/23 01:10:53;;;;;;;15.95;3.67;;;;;;;19.97;100.00;100469.13;4976602;28;20235;-77
2023/06/23 01:13:26;;;;;;;11.73;2.70;;;;;;;19.95;100.00;100480.81;4976222;28;20236;-77
2023/06/23 01:16:16;;;;;;;18.13;4.32;;;;;;;19.83;100.00;100490.09;4976062;28;20231;-77
2023/06/23 01:19:10;;;;;;;13.50;3.17;;;;;;;19.95;100.00;100510.34;4991276;28;20236;-77
2023/06/23 01:21:59;;;;;;;13.20;3.00;;;;;;;19.88;100.00;100509.63;4991718;28;20236;-78
2023/06/23 01:24:41;;;;;;;10.27;2.45;;;;;;;20.02;100.00;100523.56;4974116;28;20240;-77
2023/06/23 01:27:42;;;;;;;8.88;2.10;;;;;;;19.82;100.00;100531.28;4978845;28;20231;-78
2023/06/23 01:30:12;;;;;;;7.93;1.83;;;;;;;19.82;100.00;100542.00;4978853;28;20236;-77
2023/06/23 01:32:45;;;;;;;9.73;2.28;;;;;;;19.92;100.00;100554.25;4980594;28;20232;-77
2023/06/23 01:35:22;;;;;;;11.52;2.65;;;;;;;19.86;100.00;100557.13;4974834;28;20232;-77
2023/06/23 01:37:57;;;;;;;19.23;4.53;;;;;;;19.76;100.00;100553.78;4972496;28;20228;-76
2023/06/23 01:40:24;;;;;;;7.40;2.15;;;;;;;19.71;100.00;100566.47;4976237;28;20262;-77
2023/06/23 01:42:56;;;;;;;23.95;5.82;;;;;;;19.84;100.00;100583.13;4992069;28;20260;-77
2023/06/23 01:45:27;;;;;;;8.18;1.85;;;;;;;19.88;100.00;100590.16;4993271;28;20237;-77
2023/06/23 01:47:55;;;;;;;19.17;4.63;;;;;;;19.80;100.00;100584.13;4974921;28;20235;-77
2023/06/23 01:50:22;;;;;;;10.77;2.47;;;;;;;19.78;100.00;100585.97;4981289;28;20649;-77
2023/06/23 01:52:51;;;;;;;22.35;5.32;;;;;;;19.77;100.00;100582.41;4975685;28;20241;-77
2023/06/23 01:55:19;;;;;;;9.20;2.25;;;;;;;19.83;100.00;100584.03;4980642;28;20240;-77
2023/06/23 01:57:46;;;;;;;20.33;4.80;;;;;;;19.86;100.00;100581.25;4974967;28;20232;-77
2023/06/23 02:00:16;;;;;;;9.02;2.05;;;;;;;19.78;100.00;100581.47;4979018;28;20240;-77
2023/06/23 02:02:46;;;;;;;9.15;2.05;;;;;;;19.69;100.00;100579.03;4969011;28;20232;-76
2023/06/23 02:05:13;;;;;;;8.85;2.03;;;;;;;19.75;100.00;100581.56;4979751;28;20236;-77
2023/06/23 02:07:42;;;;;;;10.02;2.33;;;;;;;19.83;100.00;100584.03;4984543;28;20236;-77
2023/06/23 02:10:09;;;;;;;7.43;1.85;;;;;;;19.68;100.00;100584.44;4974695;28;20251;-77
2023/06/23 02:12:38;;;;;;;9.65;2.22;;;;;;;19.63;100.00;100586.34;4980743;28;20244;-77
2023/06/23 02:15:06;;;;;;;14.02;3.58;;;;;;;19.71;100.00;100569.13;4971324;28;20232;-77
2023/06/23 02:17:33;;;;;;;8.90;2.03;;;;;;;19.71;100.00;100570.94;4981492;28;20239;-77
2023/06/23 02:20:06;;;;;;;26.45;5.95;;;;;;;19.73;100.00;100559.25;4974707;28;20228;-77
2023/06/23 02:22:32;;;;;;;15.90;3.55;;;;;;;19.65;100.00;100534.41;4975012;28;20240;-77
2023/06/23 02:25:00;;;;;;;27.75;6.88;;;;;;;19.67;100.00;100553.16;4986868;28;20236;-77
2023/06/23 02:27:27;;;;;;;11.82;2.63;;;;;;;19.57;100.00;100546.28;4973187;28;20224;-78
2023/06/23 02:29:54;;;;;;;34.47;7.75;;;;;;;19.63;100.00;100546.13;4992004;28;20224;-78
2023/06/23 02:32:21;;;;;;;10.48;2.35;;;;;;;19.60;100.00;100541.72;4975811;28;20230;-78
2023/06/23 02:34:48;;;;;;;24.58;6.40;;;;;;;19.47;100.00;100535.72;4975132;28;20242;-76
2023/06/23 02:37:23;;;;;;;9.02;2.10;;;;;;;19.52;100.00;100529.38;4979429;28;20237;-78
2023/06/23 02:40:01;;;;;;;25.35;5.35;;;;;;;19.58;100.00;100514.03;4970720;28;20228;-77
2023/06/23 02:42:33;;;;;;;12.95;2.97;;;;;;;19.55;100.00;100511.44;4979614;28;20232;-77
2023/06/23 02:45:03;;;;;;;22.88;5.15;;;;;;;19.57;100.00;100519.44;4991285;28;20255;-77
2023/06/23 02:47:37;;;;;;;8.57;2.45;;;;;;;19.50;100.00;100521.34;4992242;28;20238;-76
2023/06/23 02:50:05;;;;;;;15.98;3.63;;;;;;;19.50;100.00;100529.38;4974247;28;20250;-77
2023/06/23 02:52:34;;;;;;;9.93;2.20;;;;;;;19.46;100.00;100539.31;4977644;28;20255;-77
2023/06/23 02:55:03;;;;;;;25.73;5.78;;;;;;;19.41;100.00;100540.34;4989553;28;20294;-77
2023/06/23 02:57:31;;;;;;;12.43;2.83;;;;;;;19.49;100.00;100557.13;4978082;28;20228;-77
2023/06/23 02:59:59;;;;;;;43.05;8.40;;;;;;;19.50;100.00;100554.44;4974127;28;20229;-78
2023/06/23 03:02:26;;;;;;;11.57;2.50;;;;;;;19.53;100.00;100563.38;4972996;28;20235;-77
2023/06/23 03:04:53;;;;;;;39.38;6.43;;;;;;;19.53;100.00;100566.06;4974128;28;20587;-77
2023/06/23 03:07:20;;;;;;;11.40;2.70;;;;;;;19.51;100.00;100571.41;4974648;28;20243;-77
2023/06/23 03:09:46;;;;;;;34.20;6.47;;;;;;;19.53;100.00;100579.47;4988993;28;20228;-77
2023/06/23 03:12:13;;;;;;;9.55;2.15;;;;;;;19.35;100.00;100584.31;4979378;28;20238;-77
2023/06/23 03:14:40;;;;;;;10.30;2.33;;;;;;;19.41;100.00;100591.31;4975756;28;20235;-77
2023/06/23 03:17:13;;;;;;;11.70;3.00;;;;;;;19.44;100.00;100594.81;4972677;28;20249;-77
2023/06/23 03:19:45;;;;;;;8.20;1.90;;;;;;;19.32;100.00;100604.94;4977984;28;20233;-77
2023/06/23 03:22:16;;;;;;;17.17;3.88;;;;;;;19.30;100.00;100613.03;4973413;28;20240;-77
2023/06/23 03:24:45;;;;;;;10.82;2.45;;;;;;;19.34;100.00;100617.41;4971789;28;20240;-77
2023/06/23 03:27:13;;;;;;;10.55;2.33;;;;;;;19.32;100.00;100621.03;4991623;28;20236;-77
2023/06/23 03:29:52;;;;;;;10.32;2.35;;;;;;;19.25;100.00;100630.16;4992207;28;20715;-77
2023/06/23 03:32:25;;;;;;;9.38;2.25;;;;;;;19.28;100.00;100640.81;4959881;28;20248;-77
2023/06/23 03:35:03;;;;;;;26.17;6.20;;;;;;;19.26;100.00;100639.94;4979394;28;20255;-76
2023/06/23 03:37:32;;;;;;;10.00;2.40;;;;;;;19.16;100.00;100640.16;4981138;28;20243;-77
2023/06/23 03:40:04;;;;;;;29.85;6.72;;;;;;;19.15;100.00;100672.38;4977662;28;20228;-77
2023/06/23 03:42:33;;;;;;;12.10;2.60;;;;;;;19.12;100.00;100669.75;4953595;28;20236;-77
2023/06/23 03:45:02;;;;;;;41.00;8.02;;;;;;;19.09;100.00;100684.13;4978117;28;20235;-77
2023/06/23 03:47:30;;;;;;;15.02;3.30;;;;;;;19.16;100.00;100684.84;4987754;28;20240;-76
2023/06/23 03:50:04;;;;;;;68.55;11.82;;;;;;;19.24;100.00;100692.72;4965401;28;20236;-77
2023/06/23 03:52:32;;;;;;;16.17;3.58;;;;;;;19.16;100.00;100703.63;4973546;28;20235;-76
2023/06/23 03:54:59;;;;;;;27.33;5.97;;;;;;;19.11;100.00;100709.09;4973636;28;20235;-77
2023/06/23 03:57:29;;;;;;;15.30;3.35;;;;;;;19.14;100.00;100730.47;4984427;28;20243;-77
2023/06/23 03:59:57;;;;;;;30.60;7.85;;;;;;;19.15;100.00;100731.34;4971839;28;20229;-77
2023/06/23 04:02:24;;;;;;;13.27;2.97;;;;;;;19.13;100.00;100731.38;4976352;28;20236;-78
2023/06/23 04:04:54;;;;;;;17.48;4.30;;;;;;;19.10;100.00;100739.50;4975598;28;20239;-78
2023/06/23 04:07:22;;;;;;;12.35;2.67;;;;;;;19.08;100.00;100754.72;4977140;28;20275;-77
2023/06/23 04:09:50;;;;;;;60.78;10.27;;;;;;;19.11;100.00;100765.38;4970042;28;20229;-77
2023/06/23 04:12:17;;;;;;;16.98;4.93;;;;;;;19.11;100.00;100770.75;4989237;28;20248;-78
2023/06/23 04:14:47;;;;;;;17.73;3.95;;;;;;;19.03;100.00;100767.34;4976084;28;20235;-77
2023/06/23 04:17:15;;;;;;;12.98;2.83;;;;;;;19.12;100.00;100772.50;5021945;22;20671;-80
2023/06/23 04:19:44;;;;;;;12.30;3.38;;;;;;;19.03;100.00;100770.03;4984272;28;20229;-92
2023/06/23 04:22:14;;;;;;;15.57;3.40;;;;;;;19.09;100.00;100777.06;4995972;28;20236;-77
2023/06/23 04:24:41;;;;;;;13.70;2.92;;;;;;;19.10;100.00;100781.50;4994221;28;20287;-78
2023/06/23 04:27:10;;;;;;;4.20;1.98;;;;;;;19.09;100.00;100785.09;5008357;28;20735;-75
2023/06/23 04:29:38;;;;;;;4.50;1.85;;;;;;;19.12;100.00;100793.06;4983014;28;20220;-78
2023/06/23 04:32:06;;;;;;;15.82;3.67;;;;;;;19.11;100.00;100804.72;4976055;28;20239;-75
2023/06/23 04:34:33;;;;;;;3.83;2.05;;;;;;;19.11;100.00;100815.44;4984994;28;20281;-74
2023/06/23 04:37:07;;;;;;;47.22;12.30;;;;;;;19.11;100.00;100820.81;4978553;28;20307;-74
2023/06/23 04:40:09;;;;;;;4.38;1.88;;;;;;;19.16;100.00;100821.59;4993452;28;20238;-80
2023/06/23 04:43:14;;;;;;;3.10;1.38;;;;;;;19.19;100.00;100829.56;4997748;28;20228;-79
2023/06/23 04:45:51;;;;;;;3.35;1.65;;;;;;;19.11;100.00;100831.53;4898837;29;20279;-74
2023/06/23 04:48:22;;;;;;;4.03;2.00;;;;;;;19.22;100.00;100840.25;4896584;29;20239;-76
2023/06/23 04:50:52;;;;;;;8.50;3.35;;;;;;;19.30;100.00;100826.69;4950589;28;20286;-74
2023/06/23 04:53:21;;;;;;;3.60;1.70;;;;;;;19.34;100.00;100821.22;4985689;28;20227;-74
2023/06/23 04:55:53;;;;;;;7.60;2.70;;;;;;;19.38;100.00;100812.19;4982626;28;20242;-77
2023/06/23 04:58:20;;;;;;;2.78;1.42;;;;;;;19.42;100.00;100795.13;4999084;28;20238;-75
2023/06/23 05:00:47;;;;;;;8.63;2.85;;;;;;;19.41;100.00;100805.88;4977088;28;20236;-83
2023/06/23 05:03:15;;;;;;;5.63;2.47;;;;;;;19.39;100.00;100797.88;4990977;28;20235;-75
2023/06/23 05:05:42;;;;;;;5.05;1.95;;;;;;;19.43;100.00;100796.88;4981512;28;20239;-76
2023/06/23 05:08:12;;;;;;;5.03;1.95;;;;;;;19.41;100.00;100809.44;4978252;28;20234;-72
2023/06/23 05:10:39;;;;;;;5.80;2.38;;;;;;;19.42;100.00;100808.53;4993792;28;20240;-78
2023/06/23 05:13:07;;;;;;;7.43;2.40;;;;;;;19.50;100.00;100801.22;4983971;28;20274;-75
2023/06/23 05:15:33;;;;;;;5.20;2.03;;;;;;;19.52;100.00;100800.31;4988536;28;20240;-75
2023/06/23 05:18:01;;;;;;;8.93;2.95;;;;;;;19.55;100.00;100787.75;5006482;28;20228;-78
2023/06/23 05:20:29;;;;;;;4.40;1.73;;;;;;;19.60;100.00;100776.91;4975484;28;20247;-74
2023/06/23 05:22:58;;;;;;;9.63;3.30;;;;;;;19.62;100.00;100778.66;4981986;28;20232;-74
2023/06/23 05:25:29;;;;;;;3.33;1.35;;;;;;;19.71;100.00;100794.53;4998406;28;20256;-74
2023/06/23 05:28:02;;;;;;;10.82;3.38;;;;;;;19.84;100.00;100783.53;4980701;28;20259;-74
2023/06/23 05:30:29;;;;;;;2.65;1.23;;;;;;;19.98;100.00;100790.31;4984488;28;20305;-74
2023/06/23 05:32:59;;;;;;;6.63;2.45;;;;;;;19.98;100.00;100768.84;4976629;28;20611;-75
2023/06/23 05:35:27;;;;;;;3.92;1.50;;;;;;;19.99;100.00;100775.97;4981840;28;20326;-76
2023/06/23 05:37:54;;;;;;;9.15;3.05;;;;;;;20.02;100.00;100765.16;4975132;28;20699;-76
2023/06/23 05:40:22;;;;;;;4.20;1.73;;;;;;;20.09;100.00;100760.53;5014854;28;20231;-80
2023/06/23 05:42:49;;;;;;;6.80;2.53;;;;;;;20.21;100.00;100756.66;4995342;28;20223;-76
2023/06/23 05:45:16;;;;;;;3.78;1.65;;;;;;;20.19;100.00;100740.59;4981285;28;20236;-74
2023/06/23 05:47:52;;;;;;;4.25;1.70;;;;;;;20.20;100.00;100741.47;4998670;28;20235;-79
2023/06/23 05:50:24;;;;;;;4.47;2.03;;;;;;;20.24;100.00;100724.34;4977505;28;20234;-81
2023/06/23 05:52:56;;;;;;;5.35;2.08;;;;;;;20.31;100.00;100718.78;4979831;28;20235;-78
2023/06/23 05:55:25;;;;;;;3.85;1.50;;;;;;;20.42;100.00;100708.66;4995736;28;20238;-77
2023/06/23 05:57:59;;;;;;;8.32;3.05;;;;;;;20.43;100.00;100707.75;4986860;28;20240;-84
2023/06/23 06:00:38;;;;;;;5.68;2.20;;;;;;;20.49;100.00;100692.38;4999602;28;20243;-75
2023/06/23 06:03:09;;;;;;;3.33;1.40;;;;;;;20.59;100.00;100693.88;4972979;28;20332;-77
2023/06/23 06:05:38;;;;;;;3.70;1.60;;;;;;;20.63;100.00;100703.63;4993339;28;20313;-80
2023/06/23 06:08:07;;;;;;;6.40;2.03;;;;;;;20.58;100.00;100678.69;4990086;28;20250;-75
2023/06/23 06:10:34;;;;;;;4.90;2.25;;;;;;;20.51;100.00;100675.28;5012213;28;20396;-80
2023/06/23 06:13:02;;;;;;;9.65;3.13;;;;;;;20.56;100.00;100653.66;4973416;28;20307;-75
2023/06/23 06:15:29;;;;;;;3.25;1.85;;;;;;;20.57;100.00;100660.81;5015131;28;20231;-77
2023/06/23 06:17:58;;;;;;;9.63;3.35;;;;;;;20.49;100.00;100647.59;4978587;28;20243;-75
2023/06/23 06:20:26;;;;;;;3.47;1.45;;;;;;;20.62;100.00;100664.22;4979545;28;20302;-81
2023/06/23 06:22:54;;;;;;;8.60;2.55;;;;;;;20.74;100.00;100667.44;4978467;28;20302;-76
2023/06/23 06:25:41;;;;;;;4.28;2.10;;;;;;;20.74;100.00;100671.94;4980228;28;20227;-76
2023/06/23 06:28:12;;;;;;;4.07;1.58;;;;;;;20.79;100.00;100675.38;4986102;28;20243;-78
2023/06/23 06:30:40;;;;;;;3.28;1.40;;;;;;;20.76;100.00;100665.59;4977423;28;20235;-76
2023/06/23 06:33:09;;;;;;;3.92;1.63;;;;;;;20.89;100.00;100662.59;5004921;28;20242;-75
2023/06/23 06:35:37;;;;;;;2.90;1.25;;;;;;;21.07;100.00;100667.41;4970691;28;20242;-78
2023/06/23 06:38:05;;;;;;;5.40;2.05;;;;;;;21.00;100.00;100630.88;4982353;28;20246;-75
2023/06/23 06:40:33;;;;;;;3.90;1.70;;;;;;;21.13;100.00;100628.69;4986993;28;20246;-75
2023/06/23 06:43:00;;;;;;;6.38;2.13;;;;;;;21.06;100.00;100612.75;4988253;28;20285;-76
2023/06/23 06:45:26;;;;;;;3.13;1.23;;;;;;;21.12;100.00;100597.34;4976289;28;20244;-79
2023/06/23 06:47:54;;;;;;;11.82;3.65;;;;;;;21.43;100.00;100606.22;4994093;28;20227;-76
2023/06/23 06:50:22;;;;;;;3.20;1.60;;;;;;;21.40;100.00;100592.88;4995423;28;20721;-78
2023/06/23 06:52:50;;;;;;;23.70;6.30;;;;;;;21.52;100.00;100589.78;4987968;28;20227;-76
2023/06/23 06:55:18;;;;;;;2.22;1.15;;;;;;;21.67;100.00;100581.19;4981059;28;20232;-79
2023/06/23 06:57:49;;;;;;;11.20;3.10;;;;;;;21.82;100.00;100586.97;4986308;28;20230;-76
2023/06/23 07:00:17;;;;;;;4.25;2.00;;;;;;;21.59;100.00;100545.56;4994497;28;20234;-80
2023/06/23 07:02:44;;;;;;;4.30;1.90;;;;;;;21.54;100.00;100511.69;4989123;28;20255;-81
2023/06/23 07:05:11;;;;;;;3.33;1.67;;;;;;;21.66;100.00;100512.13;4992355;28;20228;-82
2023/06/23 07:07:38;;;;;;;2.78;1.20;;;;;;;21.77;100.00;100525.22;4996675;28;20236;-85
2023/06/23 07:10:05;;;;;;;11.93;3.22;;;;;;;21.86;100.00;100511.41;4974470;28;20251;-77
2023/06/23 07:12:32;;;;;;;3.63;1.48;;;;;;;22.13;100.00;100543.72;5000882;28;20238;-76
2023/06/23 07:14:59;;;;;;;22.05;6.15;;;;;;;21.98;100.00;100473.28;4996286;28;20306;-77
2023/06/23 07:17:26;;;;;;;3.40;1.42;;;;;;;21.85;100.00;100465.69;4996787;28;20627;-77
2023/06/23 07:19:53;;;;;;;40.38;13.38;;;;;;;21.72;100.00;100459.88;4986737;28;20228;-80
2023/06/23 07:22:20;;;;;;;3.17;1.60;;;;;;;21.60;100.00;100428.91;4998808;28;20318;-76
2023/06/23 07:24:47;;;;;;;17.17;4.63;;;;;;;21.88;100.00;100458.38;4980751;28;20309;-88
2023/06/23 07:27:15;;;;;;;2.30;1.35;;;;;;;21.68;100.00;100421.44;4996893;28;20250;-75
2023/06/23 07:29:43;;;;;;;2.58;1.38;;;;;;;21.78;100.00;100427.38;4999418;28;20322;-89
2023/06/23 07:32:10;;;;;;;3.78;1.67;;;;;;;22.17;100.00;100459.19;5002633;28;20223;-87
2023/06/23 07:34:37;;;;;;;3.22;1.42;;;;;;;22.24;100.00;100425.69;4995461;28;20690;-76
2023/06/23 07:37:04;;;;;;;5.68;2.75;;;;;;;22.40;100.00;100425.94;4987975;28;20235;-77
2023/06/23 07:39:31;;;;;;;3.40;2.88;;;;;;;22.40;100.00;100402.56;4997732;28;20227;-79
2023/06/23 07:41:58;;;;;;;26.48;8.40;;;;;;;22.50;100.00;100400.38;4991800;28;20235;-79
2023/06/23 07:44:24;;;;;;;2.38;1.30;;;;;;;22.63;100.00;100388.16;4997010;28;20235;-77
2023/06/23 07:46:51;;;;;;;17.55;5.95;;;;;;;22.85;100.00;100378.28;4987363;28;20230;-77
2023/06/23 07:49:18;;;;;;;2.15;1.33;;;;;;;22.54;100.00;100319.34;4997117;28;20235;-77
2023/06/23 07:51:45;;;;;;;2.83;1.17;;;;;;;22.79;100.00;100347.97;4998719;28;20235;-77
2023/06/23 07:54:12;;;;;;;1.45;0.98;;;;;;;22.54;100.00;100303.19;4944471;28;20321;-77
2023/06/23 07:56:38;;;;;;;2.72;1.40;;;;;;;22.79;100.00;100307.50;5000259;28;20226;-77
2023/06/23 07:59:05;;;;;;;7.43;3.15;;;;;;;23.03;100.00;100297.50;4978362;28;20687;-78
2023/06/23 08:01:32;;;;;;;1.95;1.13;;;;;;;23.14;100.00;100284.41;5002913;28;20227;-77
2023/06/23 08:03:59;;;;;;;21.20;6.80;;;;;;;22.92;100.00;100211.69;4981531;28;20321;-78
2023/06/23 08:06:26;;;;;;;3.08;1.75;;;;;;;23.09;100.00;100241.47;4992528;28;20235;-79
2023/06/23 08:08:53;;;;;;;22.17;6.05;;;;;;;23.31;100.00;100263.81;4994803;28;20242;-77
2023/06/23 08:11:19;;;;;;;1.83;1.17;;;;;;;23.52;100.00;100240.38;5000709;28;20239;-80
2023/06/23 08:13:48;;;;;;;11.13;4.45;;;;;;;23.56;100.00;100203.34;4980942;28;20234;-78
2023/06/23 08:16:15;;;;;;;1.55;1.30;;;;;;;23.61;100.00;100167.09;4996655;28;20235;-84
2023/06/23 08:18:42;;;;;;;3.10;2.05;;;;;;;23.56;100.00;100138.56;4997160;28;20242;-86
2023/06/23 08:21:09;;;;;;;4.00;2.33;;;;;;;23.84;100.00;100159.69;4984911;28;20238;-82
2023/06/23 08:23:36;;;;;;;1.80;1.17;;;;;;;23.94;100.00;100144.75;4994552;28;20241;-78
2023/06/23 08:26:04;;;;;;;6.28;2.47;;;;;;;24.14;100.00;100132.94;4991098;28;20244;-81
2023/06/23 08:28:31;;;;;;;1.65;1.15;;;;;;;23.67;100.00;100057.06;5002777;28;20230;-78
2023/06/23 08:30:58;;;;;;;24.83;7.57;;;;;;;24.16;100.00;100096.78;4984050;28;20682;-77
2023/06/23 08:33:25;;;;;;;1.95;1.10;;;;;;;24.20;100.00;100057.84;4996431;28;20242;-79
2023/06/23 08:35:52;;;;;;;17.98;5.20;;;;;;;24.21;100.00;100067.69;4991439;28;20227;-77
2023/06/23 08:38:19;;;;;;;2.25;1.20;;;;;;;24.48;100.00;100088.81;4998082;28;20237;-79
2023/06/23 08:40:47;;;;;;;8.93;3.58;;;;;;;24.20;100.00;100071.34;4983012;28;20229;-77
2023/06/23 08:43:15;;;;;;;2.65;1.60;;;;;;;24.31;100.00;100087.03;4991547;28;20235;-78
2023/06/23 08:45:44;;;;;;;2.15;1.17;;;;;;;24.29;100.00;100034.88;4999314;28;20261;-78
2023/06/23 08:48:11;;;;;;;2.92;1.52;;;;;;;24.09;100.00;99972.91;4984729;28;20230;-86
2023/06/23 08:50:39;;;;;;;1.85;1.10;;;;;;;24.35;100.00;100020.16;4996039;28;20238;-77
2023/06/23 08:53:06;;;;;;;12.30;3.38;;;;;;;24.50;100.00;99987.78;4976402;28;20269;-79
2023/06/23 08:55:33;;;;;;;2.97;1.83;;;;;;;24.49;99.70;99944.59;4972420;28;20235;-78
2023/06/23 08:58:01;;;;;;;30.25;8.35;;;;;;;24.61;100.00;99946.63;4974538;28;20231;-78
2023/06/23 09:00:28;;;;;;;2.53;1.45;;;;;;;25.00;99.04;99970.56;4998511;28;20238;-81
2023/06/23 09:02:56;;;;;;;27.05;7.95;;;;;;;24.97;95.22;99911.25;4996798;28;20229;-78
2023/06/23 09:05:23;;;;;;;3.38;1.80;;;;;;;24.52;94.18;99826.38;4980347;28;20227;-80
2023/06/23 09:07:50;;;;;;;18.90;6.18;;;;;;;24.34;94.25;99792.28;4988980;28;20314;-78
2023/06/23 09:10:18;;;;;;;2.25;1.25;;;;;;;24.66;95.93;99836.38;4995412;28;20245;-81
2023/06/23 09:13:08;;;;;;;5.72;2.28;;;;;;;25.07;92.97;99850.22;4977471;28;20793;-77
2023/06/23 09:15:35;;;;;;;4.07;2.22;;;;;;;24.83;91.01;99773.22;4980734;28;20235;-78
2023/06/23 09:18:22;;;;;;;1.63;0.98;;;;;;;24.46;91.21;99723.13;4993949;28;20663;-81
2023/06/23 09:20:50;;;;;;;6.18;2.80;;;;;;;24.81;88.12;99734.56;4972580;28;20227;-78
2023/06/23 09:23:20;;;;;;;1.63;1.05;;;;;;;25.21;85.97;99735.72;4990532;28;20278;-79
2023/06/23 09:25:49;;;;;;;3.85;1.77;;;;;;;25.87;87.80;99818.25;4986550;28;20601;-80
2023/06/23 09:28:30;;;;;;;1.85;1.13;;;;;;;25.69;85.21;99742.63;4980952;28;20262;-77
2023/06/23 09:30:58;;;;;;;33.22;9.90;;;;;;;26.02;88.48;99801.03;4974311;28;20230;-81
2023/06/23 09:33:26;;;;;;;2.95;1.45;;;;;;;25.11;88.06;99654.28;4997555;28;20222;-77
2023/06/23 09:35:55;;;;;;;17.20;6.03;;;;;;;25.12;88.84;99672.25;4985214;28;20237;-79
2023/06/23 09:38:25;;;;;;;1.55;1.00;;;;;;;24.82;89.07;99634.44;4998267;28;20292;-76
2023/06/23 09:41:11;;;;;;;25.92;9.18;;;;;;;24.81;87.35;99607.47;4982477;28;20271;-77
2023/06/23 09:43:53;;;;;;;2.78;1.70;;;;;;;25.02;84.08;99587.22;4997155;28;20234;-78
2023/06/23 09:46:32;;;;;;;1.08;0.77;;;;;;;25.38;85.25;99634.53;4999568;28;20229;-77
2023/06/23 09:49:00;;;;;;;4.53;2.15;;;;;;;25.96;83.73;99674.94;4979927;28;20235;-77
2023/06/23 09:51:27;;;;;;;1.90;1.10;;;;;;;26.03;81.77;99635.66;4994368;28;20604;-77
2023/06/23 09:53:57;;;;;;;8.00;3.08;;;;;;;25.55;83.93;99573.88;4978708;28;20229;-77
2023/06/23 09:56:24;;;;;;;3.83;1.98;;;;;;;25.06;88.08;99559.00;4996751;28;20231;-76
2023/06/23 09:58:51;;;;;;;5.43;2.28;;;;;;;24.77;93.31;99587.00;5005342;28;20324;-77
2023/06/23 10:01:19;;;;;;;5.07;1.65;;;;;;;24.60;94.50;99585.31;4981965;28;20239;-79
2023/06/23 10:03:47;;;;;;;3.88;1.67;;;;;;;25.63;92.53;99685.25;4993271;28;20226;-76
2023/06/23 10:06:25;;;;;;;2.45;1.20;;;;;;;25.34;82.21;99549.09;4992267;28;20219;-75
2023/06/23 10:08:54;;;;;;;6.03;2.47;;;;;;;25.11;86.88;99534.34;5004237;28;20244;-75
2023/06/23 10:11:32;;;;;;;2.63;1.55;;;;;;;25.80;84.29;99603.78;5001586;28;20230;-77
2023/06/23 10:14:05;;;;;;;8.13;3.38;;;;;;;26.14;80.26;99602.41;4991511;28;20334;-76
2023/06/23 10:16:33;;;;;;;2.83;1.70;;;;;;;26.38;80.72;99621.56;4999639;28;20270;-74
2023/06/23 10:19:00;;;;;;;5.88;2.40;;;;;;;25.75;79.34;99486.78;4974323;28;20251;-75
2023/06/23 10:21:28;;;;;;;1.52;0.93;;;;;;;25.90;77.89;99496.56;4998100;28;20231;-74
2023/06/23 10:23:59;;;;;;;6.60;2.63;;;;;;;26.13;77.56;99508.53;4976904;28;20714;-76
2023/06/23 10:26:26;;;;;;;5.00;2.20;;;;;;;26.12;78.35;99499.53;4993543;28;20242;-74
2023/06/23 10:28:53;;;;;;;6.45;2.35;;;;;;;26.03;76.04;99451.44;4964622;28;20246;-75
2023/06/23 10:31:21;;;;;;;3.47;1.90;;;;;;;26.09;74.85;99461.81;4996778;28;20270;-76
2023/06/23 10:33:49;;;;;;;11.77;3.58;;;;;;;26.58;75.74;99511.72;4988422;28;20346;-76
2023/06/23 10:36:20;;;;;;;3.55;1.88;;;;;;;26.89;72.41;99505.81;4987638;28;20232;-75
2023/06/23 10:38:54;;;;;;;29.63;8.25;;;;;;;26.83;71.36;99454.72;4981154;28;20241;-74
2023/06/23 10:41:22;;;;;;;2.88;1.52;;;;;;;26.70;74.91;99452.03;4978012;28;20235;-76
2023/06/23 10:43:52;;;;;;;6.45;2.22;;;;;;;27.60;74.76;99575.72;4988378;28;20233;-74
2023/06/23 10:46:20;;;;;;;1.98;1.10;;;;;;;26.97;69.99;99404.88;4987426;28;20234;-76
2023/06/23 10:48:47;;;;;;;8.73;2.80;;;;;;;26.79;75.06;99437.81;4990823;28;20230;-75
2023/06/23 10:51:13;;;;;;;2.28;1.25;;;;;;;27.08;74.73;99481.81;4999554;28;20276;-75
2023/06/23 10:54:07;;;;;;;4.22;1.98;;;;;;;26.73;72.31;99400.28;4989125;28;20227;-76
2023/06/23 10:56:41;;;;;;;3.83;1.88;;;;;;;27.08;70.20;99391.38;5000641;28;20223;-76
2023/06/23 10:59:21;;;;;;;3.15;1.55;;;;;;;26.91;67.17;99318.50;4993682;28;20329;-75
2023/06/23 11:02:01;;;;;;;3.83;2.08;;;;;;;26.30;70.12;99249.88;4991000;28;20235;-76
2023/06/23 11:04:32;;;;;;;3.78;1.77;;;;;;;26.04;72.08;99254.53;4998154;28;20223;-77
2023/06/23 11:07:10;;;;;;;8.50;3.28;;;;;;;25.89;72.82;99253.75;4989009;28;20238;-75
2023/06/23 11:10:02;;;;;;;2.58;1.38;;;;;;;25.83;72.14;99249.66;5000956;28;20230;-76
2023/06/23 11:12:49;;;;;;;2.03;1.20;;;;;;;26.81;65.49;99299.34;4993702;28;20609;-76
2023/06/23 11:15:21;;;;;;;3.45;1.88;;;;;;;27.16;65.44;99334.69;4980152;28;20230;-76
2023/06/23 11:18:00;;;;;;;7.13;2.92;;;;;;;27.14;65.80;99308.63;4994366;28;20226;-76
2023/06/23 11:20:32;;;;;;;3.28;1.55;;;;;;;26.91;69.78;99297.66;4997319;28;20242;-75
2023/06/23 11:23:08;;;;;;;7.20;2.60;;;;;;;26.76;67.68;99269.88;4993011;28;20239;-76
2023/06/23 11:25:46;;;;;;;1.75;1.30;;;;;;;26.66;70.45;99286.97;4996610;28;20227;-75
2023/06/23 11:28:35;;;;;;;2.80;1.90;;;;;;;26.31;68.21;99197.41;4993891;28;20242;-77
2023/06/23 11:31:03;;;;;;;8.98;3.45;;;;;;;26.43;70.29;99238.03;4986371;28;20323;-78